sensor_id;sensor_type;location;lat;lon;timestamp;pressure;altitude;pressure_sealevel;temperature;humidity
10064;BME280;5071;52.360;13.134;2023-05-20T00:00:26;102105.41;;;11.06;79.42
10064;BME280;5071;52.360;13.134;2023-05-20T00:05:27;102111.50;;;10.96;79.82
10064;BME280;5071;52.360;13.134;2023-05-20T00:10:30;102115.88;;;10.87;81.15
10064;BME280;5071;52.360;13.134;2023-05-20T00:15:33;102105.19;;;10.81;81.51
10064;BME280;5071;52.360;13.134;2023-05-20T00:20:36;102107.81;;;10.78;82.00
10064;BME280;5071;52.360;13.134;2023-05-20T00:25:38;102108.63;;;10.71;82.07
10064;BME280;5071;52.360;13.134;2023-05-20T00:30:42;102101.56;;;10.70;82.51
10064;BME280;5071;52.360;13.134;2023-05-20T00:35:44;102099.81;;;10.75;82.19
10064;BME280;5071;52.360;13.134;2023-05-20T00:40:46;102099.81;;;10.72;82.23
10064;BME280;5071;52.360;13.134;2023-05-20T00:45:50;102095.25;;;10.59;82.67
10064;BME280;5071;52.360;13.134;2023-05-20T00:50:52;102096.97;;;10.52;83.62
10064;BME280;5071;52.360;13.134;2023-05-20T00:55:55;102102.13;;;10.40;83.95
10064;BME280;5071;52.360;13.134;2023-05-20T01:00:59;102095.97;;;10.42;84.10
10064;BME280;5071;52.360;13.134;2023-05-20T01:06:01;102092.31;;;10.31;84.95
10064;BME280;5071;52.360;13.134;2023-05-20T01:11:07;102089.53;;;10.20;85.11
10064;BME280;5071;52.360;13.134;2023-05-20T01:16:13;102079.81;;;10.24;85.60
10064;BME280;5071;52.360;13.134;2023-05-20T01:21:16;102081.63;;;10.25;85.54
10064;BME280;5071;52.360;13.134;2023-05-20T01:26:19;102086.94;;;10.25;85.98
10064;BME280;5071;52.360;13.134;2023-05-20T01:31:23;102081.56;;;10.20;85.92
10064;BME280;5071;52.360;13.134;2023-05-20T01:36:27;102072.63;;;10.10;86.22
10064;BME280;5071;52.360;13.134;2023-05-20T01:41:31;102071.81;;;10.18;86.49
10064;BME280;5071;52.360;13.134;2023-05-20T01:46:34;102058.47;;;10.11;86.70
10064;BME280;5071;52.360;13.134;2023-05-20T01:51:36;102068.09;;;10.02;87.36
10064;BME280;5071;52.360;13.134;2023-05-20T01:56:40;102068.91;;;9.96;88.22
10064;BME280;5071;52.360;13.134;2023-05-20T02:01:42;102065.50;;;10.09;87.94
10064;BME280;5071;52.360;13.134;2023-05-20T02:06:44;102055.78;;;10.08;88.02
10064;BME280;5071;52.360;13.134;2023-05-20T02:11:47;102055.88;;;10.16;88.14
10064;BME280;5071;52.360;13.134;2023-05-20T02:16:49;102055.03;;;10.20;88.16
10064;BME280;5071;52.360;13.134;2023-05-20T02:21:52;102064.91;;;10.32;87.87
10064;BME280;5071;52.360;13.134;2023-05-20T02:26:55;102060.59;;;10.45;87.36
10064;BME280;5071;52.360;13.134;2023-05-20T02:31:57;102063.38;;;10.56;87.15
10064;BME280;5071;52.360;13.134;2023-05-20T02:36:59;102069.66;;;10.67;87.00
10064;BME280;5071;52.360;13.134;2023-05-20T02:42:03;102072.44;;;10.79;86.60
10064;BME280;5071;52.360;13.134;2023-05-20T02:47:04;102076.97;;;10.93;86.38
10064;BME280;5071;52.360;13.134;2023-05-20T02:52:07;102078.69;;;10.92;86.03
10064;BME280;5071;52.360;13.134;2023-05-20T02:57:10;102073.38;;;10.87;86.53
10064;BME280;5071;52.360;13.134;2023-05-20T03:02:13;102074.28;;;10.94;86.55
10064;BME280;5071;52.360;13.134;2023-05-20T03:07:14;102086.72;;;10.97;86.28
10064;BME280;5071;52.360;13.134;2023-05-20T03:12:18;102084.13;;;11.04;85.60
10064;BME280;5071;52.360;13.134;2023-05-20T03:17:20;102086.75;;;10.98;86.01
10064;BME280;5071;52.360;13.134;2023-05-20T03:22:22;102079.69;;;11.05;85.74
10064;BME280;5071;52.360;13.134;2023-05-20T03:27:26;102089.41;;;11.01;85.69
10064;BME280;5071;52.360;13.134;2023-05-20T03:32:28;102077.88;;;10.96;86.11
10064;BME280;5071;52.360;13.134;2023-05-20T03:37:30;102083.25;;;11.04;86.12
10064;BME280;5071;52.360;13.134;2023-05-20T03:42:34;102081.47;;;11.09;85.75
10064;BME280;5071;52.360;13.134;2023-05-20T03:47:37;102085.09;;;11.16;85.54
10064;BME280;5071;52.360;13.134;2023-05-20T03:52:39;102089.50;;;11.12;86.10
10064;BME280;5071;52.360;13.134;2023-05-20T03:57:43;102091.38;;;11.27;85.06
10064;BME280;5071;52.360;13.134;2023-05-20T04:02:45;102083.38;;;11.27;85.04
10064;BME280;5071;52.360;13.134;2023-05-20T04:07:47;102090.53;;;11.34;84.97
10064;BME280;5071;52.360;13.134;2023-05-20T04:12:51;102082.56;;;11.36;84.88
10064;BME280;5071;52.360;13.134;2023-05-20T04:17:53;102077.31;;;11.45;84.79
10064;BME280;5071;52.360;13.134;2023-05-20T04:22:56;102084.38;;;11.46;84.90
10064;BME280;5071;52.360;13.134;2023-05-20T04:27:59;102078.16;;;11.44;84.99
10064;BME280;5071;52.360;13.134;2023-05-20T04:33:01;102082.63;;;11.54;84.56
10064;BME280;5071;52.360;13.134;2023-05-20T04:38:04;102088.00;;;11.63;84.26
10064;BME280;5071;52.360;13.134;2023-05-20T04:43:08;102092.44;;;11.61;84.31
10064;BME280;5071;52.360;13.134;2023-05-20T04:48:10;102077.44;;;11.76;83.57
10064;BME280;5071;52.360;13.134;2023-05-20T04:53:12;102084.53;;;11.74;84.18
10064;BME280;5071;52.360;13.134;2023-05-20T04:58:15;102080.16;;;11.85;83.71
10064;BME280;5071;52.360;13.134;2023-05-20T05:03:18;102073.09;;;11.92;83.36
10064;BME280;5071;52.360;13.134;2023-05-20T05:08:20;102074.78;;;11.82;83.79
10064;BME280;5071;52.360;13.134;2023-05-20T05:13:25;102073.91;;;11.86;83.57
10064;BME280;5071;52.360;13.134;2023-05-20T05:18:26;102068.66;;;11.95;83.30
10064;BME280;5071;52.360;13.134;2023-05-20T05:23:29;102074.91;;;12.02;83.63
10064;BME280;5071;52.360;13.134;2023-05-20T05:28:33;102075.84;;;12.15;82.51
10064;BME280;5071;52.360;13.134;2023-05-20T05:33:34;102066.94;;;12.10;83.37
10064;BME280;5071;52.360;13.134;2023-05-20T05:38:36;102058.97;;;12.23;82.47
10064;BME280;5071;52.360;13.134;2023-05-20T05:43:39;102053.66;;;12.23;83.04
10064;BME280;5071;52.360;13.134;2023-05-20T05:48:41;102056.34;;;12.37;82.30
10064;BME280;5071;52.360;13.134;2023-05-20T05:53:43;102054.56;;;12.44;81.78
10064;BME280;5071;52.360;13.134;2023-05-20T05:58:46;102057.25;;;12.61;81.28
10064;BME280;5071;52.360;13.134;2023-05-20T06:03:48;102049.28;;;12.73;80.76
10064;BME280;5071;52.360;13.134;2023-05-20T06:08:50;102043.06;;;12.79;80.69
10064;BME280;5071;52.360;13.134;2023-05-20T06:13:54;102046.63;;;12.75;81.22
10064;BME280;5071;52.360;13.134;2023-05-20T06:18:56;102053.72;;;12.70;81.61
10064;BME280;5071;52.360;13.134;2023-05-20T06:23:59;102065.25;;;12.73;81.40
10064;BME280;5071;52.360;13.134;2023-05-20T06:29:02;102059.03;;;12.76;81.60
10064;BME280;5071;52.360;13.134;2023-05-20T06:34:04;102069.69;;;12.87;81.29
10064;BME280;5071;52.360;13.134;2023-05-20T06:39:06;102074.16;;;12.88;81.26
10064;BME280;5071;52.360;13.134;2023-05-20T06:44:09;102070.59;;;13.01;80.57
10064;BME280;5071;52.360;13.134;2023-05-20T06:49:11;102081.25;;;12.81;81.81
10064;BME280;5071;52.360;13.134;2023-05-20T06:54:13;102076.81;;;12.88;81.91
10064;BME280;5071;52.360;13.134;2023-05-20T06:59:16;102071.44;;;13.00;81.78
10064;BME280;5071;52.360;13.134;2023-05-20T07:04:19;102066.13;;;13.09;80.73
10064;BME280;5071;52.360;13.134;2023-05-20T07:09:21;102066.97;;;13.19;80.54
10064;BME280;5071;52.360;13.134;2023-05-20T07:14:24;102061.66;;;13.42;79.78
10064;BME280;5071;52.360;13.134;2023-05-20T07:19:27;102049.97;;;13.72;78.64
10064;BME280;5071;52.360;13.134;2023-05-20T07:24:29;102041.84;;;13.95;77.49
10064;BME280;5071;52.360;13.134;2023-05-20T07:29:32;102039.16;;;13.95;77.42
10064;BME280;5071;52.360;13.134;2023-05-20T07:34:35;102038.34;;;13.81;78.55
10064;BME280;5071;52.360;13.134;2023-05-20T07:39:37;102037.38;;;13.97;77.71
10064;BME280;5071;52.360;13.134;2023-05-20T07:44:40;102037.88;;;14.61;76.56
10064;BME280;5071;52.360;13.134;2023-05-20T07:49:42;102029.69;;;14.80;73.89
10064;BME280;5071;52.360;13.134;2023-05-20T07:54:44;102031.63;;;14.61;74.68
10064;BME280;5071;52.360;13.134;2023-05-20T07:59:48;102020.75;;;14.82;73.83
10064;BME280;5071;52.360;13.134;2023-05-20T08:04:50;102027.00;;;14.80;73.92
10064;BME280;5071;52.360;13.134;2023-05-20T08:09:52;102023.34;;;14.88;72.98
10064;BME280;5071;52.360;13.134;2023-05-20T08:14:55;102023.06;;;15.18;72.29
10064;BME280;5071;52.360;13.134;2023-05-20T08:19:57;102015.50;;;15.55;70.78
10064;BME280;5071;52.360;13.134;2023-05-20T08:25:00;102004.34;;;15.90;69.33
10064;BME280;5071;52.360;13.134;2023-05-20T08:30:04;102000.59;;;16.02;69.06
10064;BME280;5071;52.360;13.134;2023-05-20T08:35:07;101987.72;;;16.27;67.42
10064;BME280;5071;52.360;13.134;2023-05-20T08:40:10;101980.69;;;16.20;67.79
10064;BME280;5071;52.360;13.134;2023-05-20T08:45:17;101993.25;;;16.15;67.83
10064;BME280;5071;52.360;13.134;2023-05-20T08:50:20;101993.41;;;16.60;67.41
10064;BME280;5071;52.360;13.134;2023-05-20T08:55:24;101997.94;;;16.01;68.45
10064;BME280;5071;52.360;13.134;2023-05-20T09:00:28;101998.13;;;15.88;68.49
10064;BME280;5071;52.360;13.134;2023-05-20T09:05:30;102010.00;;;15.67;70.16
10064;BME280;5071;52.360;13.134;2023-05-20T09:10:34;102003.81;;;15.61;69.87
10064;BME280;5071;52.360;13.134;2023-05-20T09:15:37;102002.38;;;16.05;69.03
10064;BME280;5071;52.360;13.134;2023-05-20T09:20:40;101998.75;;;16.06;69.62
10064;BME280;5071;52.360;13.134;2023-05-20T09:25:42;102004.56;;;15.77;70.21
10064;BME280;5071;52.360;13.134;2023-05-20T09:30:47;101992.56;;;16.02;68.69
10064;BME280;5071;52.360;13.134;2023-05-20T09:35:49;101992.47;;;16.08;69.11
10064;BME280;5071;52.360;13.134;2023-05-20T09:40:51;101995.53;;;16.94;66.11
10064;BME280;5071;52.360;13.134;2023-05-20T09:45:55;101993.63;;;17.44;64.29
10064;BME280;5071;52.360;13.134;2023-05-20T09:50:57;101993.25;;;16.69;66.67
10064;BME280;5071;52.360;13.134;2023-05-20T09:55:59;101984.09;;;16.81;66.83
10064;BME280;5071;52.360;13.134;2023-05-20T10:01:02;101974.28;;;16.82;67.02
10064;BME280;5071;52.360;13.134;2023-05-20T10:06:17;101976.78;;;16.91;65.51
10064;BME280;5071;52.360;13.134;2023-05-20T10:11:31;101967.53;;;16.59;67.04
10064;BME280;5071;52.360;13.134;2023-05-20T10:16:50;101968.22;;;17.19;66.62
10064;BME280;5071;52.360;13.134;2023-05-20T10:21:59;101960.00;;;17.26;64.69
10064;BME280;5071;52.360;13.134;2023-05-20T10:27:03;101967.28;;;17.62;63.34
10064;BME280;5071;52.360;13.134;2023-05-20T10:32:07;101967.03;;;18.51;60.32
10064;BME280;5071;52.360;13.134;2023-05-20T10:37:20;101958.69;;;18.25;61.77
10064;BME280;5071;52.360;13.134;2023-05-20T10:42:27;101959.00;;;18.13;62.96
10064;BME280;5071;52.360;13.134;2023-05-20T10:47:31;101951.22;;;18.37;60.73
10064;BME280;5071;52.360;13.134;2023-05-20T10:52:35;101948.88;;;18.24;61.38
10064;BME280;5071;52.360;13.134;2023-05-20T10:57:37;101949.53;;;18.33;60.09
10064;BME280;5071;52.360;13.134;2023-05-20T11:02:40;101932.75;;;18.24;61.47
10064;BME280;5071;52.360;13.134;2023-05-20T11:07:42;101931.50;;;18.38;60.31
10064;BME280;5071;52.360;13.134;2023-05-20T11:12:44;101905.09;;;19.48;57.88
10064;BME280;5071;52.360;13.134;2023-05-20T11:17:55;101917.72;;;20.30;54.88
10064;BME280;5071;52.360;13.134;2023-05-20T11:22:58;101914.88;;;20.35;54.40
10064;BME280;5071;52.360;13.134;2023-05-20T11:28:00;101913.38;;;20.78;52.70
10064;BME280;5071;52.360;13.134;2023-05-20T11:33:04;101907.81;;;20.04;54.71
10064;BME280;5071;52.360;13.134;2023-05-20T11:38:06;101888.06;;;20.04;55.77
10064;BME280;5071;52.360;13.134;2023-05-20T11:43:09;101898.78;;;20.32;55.12
10064;BME280;5071;52.360;13.134;2023-05-20T11:48:13;101892.75;;;20.50;54.98
10064;BME280;5071;52.360;13.134;2023-05-20T11:53:17;101883.06;;;19.63;56.45
10064;BME280;5071;52.360;13.134;2023-05-20T11:58:20;101876.78;;;18.39;60.99
10064;BME280;5071;52.360;13.134;2023-05-20T12:03:24;101862.78;;;19.51;57.87
10064;BME280;5071;52.360;13.134;2023-05-20T12:08:26;101872.25;;;19.65;58.19
10064;BME280;5071;52.360;13.134;2023-05-20T12:13:28;101853.75;;;20.09;56.24
10064;BME280;5071;52.360;13.134;2023-05-20T12:18:31;101847.94;;;19.66;56.09
10064;BME280;5071;52.360;13.134;2023-05-20T12:23:33;101853.16;;;19.72;57.86
10064;BME280;5071;52.360;13.134;2023-05-20T12:28:36;101835.56;;;19.02;59.34
10064;BME280;5071;52.360;13.134;2023-05-20T12:33:39;101830.25;;;19.86;56.91
10064;BME280;5071;52.360;13.134;2023-05-20T12:38:41;101836.34;;;20.69;55.66
10064;BME280;5071;52.360;13.134;2023-05-20T12:43:43;101815.88;;;20.87;54.24
10064;BME280;5071;52.360;13.134;2023-05-20T12:55:24;101809.75;;;21.06;54.37
10064;BME280;5071;52.360;13.134;2023-05-20T13:00:26;101813.25;;;20.61;55.04
10064;BME280;5071;52.360;13.134;2023-05-20T13:05:28;101808.00;;;19.52;56.49
10064;BME280;5071;52.360;13.134;2023-05-20T13:10:32;101789.59;;;19.93;57.08
10064;BME280;5071;52.360;13.134;2023-05-20T13:15:34;101787.00;;;20.15;56.10
10064;BME280;5071;52.360;13.134;2023-05-20T13:20:36;101787.59;;;19.73;57.72
10064;BME280;5071;52.360;13.134;2023-05-20T13:25:40;101772.34;;;20.24;55.99
10064;BME280;5071;52.360;13.134;2023-05-20T13:30:42;101740.94;;;19.71;56.84
10064;BME280;5071;52.360;13.134;2023-05-20T13:35:44;101744.22;;;20.55;56.00
10064;BME280;5071;52.360;13.134;2023-05-20T13:40:48;101749.47;;;20.34;55.89
10064;BME280;5071;52.360;13.134;2023-05-20T13:45:50;101749.56;;;19.83;58.00
10064;BME280;5071;52.360;13.134;2023-05-20T13:50:53;101754.38;;;20.23;57.29
10064;BME280;5071;52.360;13.134;2023-05-20T13:55:56;101753.72;;;19.91;57.32
10064;BME280;5071;52.360;13.134;2023-05-20T14:00:58;101752.16;;;20.83;55.62
10064;BME280;5071;52.360;13.134;2023-05-20T14:06:01;101735.56;;;21.16;53.50
10064;BME280;5071;52.360;13.134;2023-05-20T14:11:04;101736.47;;;20.22;56.54
10064;BME280;5071;52.360;13.134;2023-05-20T14:16:06;101729.13;;;20.74;56.67
10064;BME280;5071;52.360;13.134;2023-05-20T14:21:10;101727.75;;;20.86;55.14
10064;BME280;5071;52.360;13.134;2023-05-20T14:26:13;101715.59;;;21.20;54.61
10064;BME280;5071;52.360;13.134;2023-05-20T14:31:15;101707.53;;;20.96;55.17
10064;BME280;5071;52.360;13.134;2023-05-20T14:36:17;101704.78;;;21.20;54.02
10064;BME280;5071;52.360;13.134;2023-05-20T14:41:20;101700.84;;;21.07;54.38
10064;BME280;5071;52.360;13.134;2023-05-20T14:46:22;101698.84;;;21.12;54.96
10064;BME280;5071;52.360;13.134;2023-05-20T14:51:24;101711.44;;;21.55;53.26
10064;BME280;5071;52.360;13.134;2023-05-20T14:56:28;101680.03;;;21.53;54.27
10064;BME280;5071;52.360;13.134;2023-05-20T15:01:30;101677.13;;;22.18;51.92
10064;BME280;5071;52.360;13.134;2023-05-20T15:06:32;101676.47;;;21.08;53.84
10064;BME280;5071;52.360;13.134;2023-05-20T15:11:35;101677.78;;;20.98;54.35
10064;BME280;5071;52.360;13.134;2023-05-20T15:16:38;101672.53;;;21.38;53.76
10064;BME280;5071;52.360;13.134;2023-05-20T15:21:39;101680.81;;;21.12;54.41
10064;BME280;5071;52.360;13.134;2023-05-20T15:26:43;101658.53;;;21.50;53.97
10064;BME280;5071;52.360;13.134;2023-05-20T15:31:45;101662.88;;;21.74;52.93
10064;BME280;5071;52.360;13.134;2023-05-20T15:36:47;101665.44;;;21.57;53.71
10064;BME280;5071;52.360;13.134;2023-05-20T15:41:50;101660.84;;;21.37;54.09
10064;BME280;5071;52.360;13.134;2023-05-20T15:46:52;101647.31;;;22.00;51.94
10064;BME280;5071;52.360;13.134;2023-05-20T15:51:54;101648.41;;;22.55;50.98
10064;BME280;5071;52.360;13.134;2023-05-20T15:57:05;101634.28;;;22.48;51.80
10064;BME280;5071;52.360;13.134;2023-05-20T16:02:07;101646.34;;;22.41;51.19
10064;BME280;5071;52.360;13.134;2023-05-20T16:07:09;101629.34;;;21.79;52.88
10064;BME280;5071;52.360;13.134;2023-05-20T16:12:12;101635.84;;;21.54;53.28
10064;BME280;5071;52.360;13.134;2023-05-20T16:17:14;101636.53;;;21.16;54.16
10064;BME280;5071;52.360;13.134;2023-05-20T16:22:17;101619.50;;;21.78;53.06
10064;BME280;5071;52.360;13.134;2023-05-20T16:27:20;101612.69;;;21.48;54.01
10064;BME280;5071;52.360;13.134;2023-05-20T16:32:23;101610.44;;;21.98;53.31
10064;BME280;5071;52.360;13.134;2023-05-20T16:37:25;101607.22;;;21.07;55.13
10064;BME280;5071;52.360;13.134;2023-05-20T16:42:28;101610.28;;;21.41;54.02
10064;BME280;5071;52.360;13.134;2023-05-20T16:47:30;101609.13;;;20.83;55.51
10064;BME280;5071;52.360;13.134;2023-05-20T16:52:32;101605.50;;;20.84;55.92
10064;BME280;5071;52.360;13.134;2023-05-20T16:57:36;101608.63;;;20.95;55.15
10064;BME280;5071;52.360;13.134;2023-05-20T17:02:38;101617.78;;;20.91;55.38
10064;BME280;5071;52.360;13.134;2023-05-20T17:07:41;101594.00;;;20.79;56.03
10064;BME280;5071;52.360;13.134;2023-05-20T17:12:44;101595.41;;;20.44;57.10
10064;BME280;5071;52.360;13.134;2023-05-20T17:17:45;101587.63;;;20.36;57.47
10064;BME280;5071;52.360;13.134;2023-05-20T17:22:47;101603.72;;;20.83;56.59
10064;BME280;5071;52.360;13.134;2023-05-20T17:27:51;101602.59;;;20.89;56.41
10064;BME280;5071;52.360;13.134;2023-05-20T17:32:53;101601.50;;;20.49;57.94
10064;BME280;5071;52.360;13.134;2023-05-20T17:37:55;101593.06;;;20.12;58.40
10064;BME280;5071;52.360;13.134;2023-05-20T17:42:58;101599.16;;;19.94;59.47
10064;BME280;5071;52.360;13.134;2023-05-20T17:48:00;101598.63;;;19.84;59.76
10064;BME280;5071;52.360;13.134;2023-05-20T17:53:02;101591.75;;;19.75;60.21
10064;BME280;5071;52.360;13.134;2023-05-20T17:58:06;101602.41;;;19.78;60.23
10064;BME280;5071;52.360;13.134;2023-05-20T18:03:08;101598.09;;;19.98;58.96
10064;BME280;5071;52.360;13.134;2023-05-20T18:08:11;101594.09;;;19.85;59.68
10064;BME280;5071;52.360;13.134;2023-05-20T18:13:14;101582.84;;;19.73;60.69
10064;BME280;5071;52.360;13.134;2023-05-20T18:18:17;101583.81;;;19.46;61.28
10064;BME280;5071;52.360;13.134;2023-05-20T18:23:19;101590.47;;;19.35;61.42
10064;BME280;5071;52.360;13.134;2023-05-20T18:28:22;101583.56;;;19.28;61.99
10064;BME280;5071;52.360;13.134;2023-05-20T18:33:24;101587.16;;;19.27;61.95
10064;BME280;5071;52.360;13.134;2023-05-20T18:38:27;101577.75;;;19.14;62.53
10064;BME280;5071;52.360;13.134;2023-05-20T18:43:30;101586.28;;;19.01;63.40
10064;BME280;5071;52.360;13.134;2023-05-20T18:48:32;101592.97;;;18.88;64.35
10064;BME280;5071;52.360;13.134;2023-05-20T18:53:34;101594.28;;;18.75;64.79
10064;BME280;5071;52.360;13.134;2023-05-20T18:58:38;101599.72;;;18.73;64.95
10064;BME280;5071;52.360;13.134;2023-05-20T19:03:40;101595.53;;;18.64;65.19
10064;BME280;5071;52.360;13.134;2023-05-20T19:08:43;101600.16;;;18.59;65.68
10064;BME280;5071;52.360;13.134;2023-05-20T19:13:46;101597.69;;;18.53;65.99
10064;BME280;5071;52.360;13.134;2023-05-20T19:18:48;101608.72;;;18.44;66.28
10064;BME280;5071;52.360;13.134;2023-05-20T19:23:50;101599.03;;;18.38;66.73
10064;BME280;5071;52.360;13.134;2023-05-20T19:28:53;101608.91;;;18.38;67.12
10064;BME280;5071;52.360;13.134;2023-05-20T19:33:55;101613.56;;;18.33;67.18
10064;BME280;5071;52.360;13.134;2023-05-20T19:38:58;101615.72;;;18.20;67.68
10064;BME280;5071;52.360;13.134;2023-05-20T19:44:01;101620.69;;;18.04;68.46
10064;BME280;5071;52.360;13.134;2023-05-20T19:49:03;101627.63;;;18.11;67.99
10064;BME280;5071;52.360;13.134;2023-05-20T19:54:05;101626.13;;;18.01;68.24
10064;BME280;5071;52.360;13.134;2023-05-20T19:59:09;101620.13;;;17.93;68.82
10064;BME280;5071;52.360;13.134;2023-05-20T20:04:11;101626.41;;;17.92;68.92
10064;BME280;5071;52.360;13.134;2023-05-20T20:09:13;101621.25;;;17.82;69.37
10064;BME280;5071;52.360;13.134;2023-05-20T20:14:17;101623.19;;;17.77;69.62
10064;BME280;5071;52.360;13.134;2023-05-20T20:19:18;101616.44;;;17.62;70.00
10064;BME280;5071;52.360;13.134;2023-05-20T20:24:20;101619.25;;;17.58;70.25
10064;BME280;5071;52.360;13.134;2023-05-20T20:29:24;101620.84;;;17.32;71.22
10064;BME280;5071;52.360;13.134;2023-05-20T20:34:26;101624.88;;;17.16;72.54
10064;BME280;5071;52.360;13.134;2023-05-20T20:39:28;101618.91;;;17.04;72.60
10064;BME280;5071;52.360;13.134;2023-05-20T20:44:31;101623.16;;;17.12;72.41
10064;BME280;5071;52.360;13.134;2023-05-20T20:49:34;101612.94;;;16.92;73.83
10064;BME280;5071;52.360;13.134;2023-05-20T20:54:36;101608.81;;;16.77;74.28
10064;BME280;5071;52.360;13.134;2023-05-20T20:59:41;101599.41;;;16.57;75.45
10064;BME280;5071;52.360;13.134;2023-05-20T21:04:44;101597.00;;;16.48;76.14
10064;BME280;5071;52.360;13.134;2023-05-20T21:09:45;101601.47;;;16.46;76.45
10064;BME280;5071;52.360;13.134;2023-05-20T21:14:49;101590.03;;;16.39;76.98
10064;BME280;5071;52.360;13.134;2023-05-20T21:19:50;101586.63;;;16.31;77.17
10064;BME280;5071;52.360;13.134;2023-05-20T21:24:53;101576.81;;;16.31;77.37
10064;BME280;5071;52.360;13.134;2023-05-20T21:29:56;101566.97;;;16.32;77.58
10064;BME280;5071;52.360;13.134;2023-05-20T21:34:58;101564.16;;;16.37;77.67
10064;BME280;5071;52.360;13.134;2023-05-20T21:40:00;101561.41;;;16.41;77.30
10064;BME280;5071;52.360;13.134;2023-05-20T21:45:05;101557.06;;;16.36;78.21
10064;BME280;5071;52.360;13.134;2023-05-20T21:50:09;101552.69;;;16.31;77.96
10064;BME280;5071;52.360;13.134;2023-05-20T21:55:11;101546.63;;;16.23;78.53
10064;BME280;5071;52.360;13.134;2023-05-20T22:00:15;101545.56;;;16.30;78.32
10064;BME280;5071;52.360;13.134;2023-05-20T22:05:17;101544.78;;;16.25;78.57
10064;BME280;5071;52.360;13.134;2023-05-20T22:10:20;101550.03;;;16.31;78.92
10064;BME280;5071;52.360;13.134;2023-05-20T22:15:25;101549.41;;;16.19;79.38
10064;BME280;5071;52.360;13.134;2023-05-20T22:20:27;101546.09;;;16.07;80.02
10064;BME280;5071;52.360;13.134;2023-05-20T22:25:30;101546.91;;;16.11;80.32
10064;BME280;5071;52.360;13.134;2023-05-20T22:30:33;101545.03;;;16.16;80.03
10064;BME280;5071;52.360;13.134;2023-05-20T22:35:36;101537.88;;;16.15;80.40
10064;BME280;5071;52.360;13.134;2023-05-20T22:40:38;101540.81;;;16.04;81.11
10064;BME280;5071;52.360;13.134;2023-05-20T22:45:42;101536.72;;;15.88;81.74
10064;BME280;5071;52.360;13.134;2023-05-20T22:50:44;101531.47;;;15.82;82.24
10064;BME280;5071;52.360;13.134;2023-05-20T22:55:46;101530.09;;;15.61;83.15
10064;BME280;5071;52.360;13.134;2023-05-20T23:00:49;101533.63;;;15.63;83.03
10064;BME280;5071;52.360;13.134;2023-05-20T23:05:52;101536.41;;;15.58;83.70
10064;BME280;5071;52.360;13.134;2023-05-20T23:10:54;101530.28;;;15.51;84.35
10064;BME280;5071;52.360;13.134;2023-05-20T23:15:58;101527.91;;;15.38;84.97
10064;BME280;5071;52.360;13.134;2023-05-20T23:21:00;101523.44;;;15.38;85.10
10064;BME280;5071;52.360;13.134;2023-05-20T23:26:02;101510.34;;;15.24;86.12
10064;BME280;5071;52.360;13.134;2023-05-20T23:31:06;101503.03;;;15.32;86.20
10064;BME280;5071;52.360;13.134;2023-05-20T23:36:08;101504.06;;;15.25;86.65
10064;BME280;5071;52.360;13.134;2023-05-20T23:41:10;101492.56;;;15.20;86.76
10064;BME280;5071;52.360;13.134;2023-05-20T23:46:14;101499.16;;;15.02;87.36
10064;BME280;5071;52.360;13.134;2023-05-20T23:51:16;101499.31;;;14.93;88.59
10064;BME280;5071;52.360;13.134;2023-05-20T23:56:18;101492.25;;;14.90;88.69
